createdAt,value
2017-12-21T00:01:38.461Z,30.40
2017-12-21T00:02:38.430Z,30.80
2017-12-21T00:04:34.869Z,28.70
2017-12-21T00:05:34.367Z,32.60
2017-12-21T00:07:30.341Z,27.20
2017-12-21T00:08:30.291Z,29.20
2017-12-21T00:10:27.184Z,32.50
2017-12-21T00:11:26.253Z,33.80
2017-12-21T00:13:22.246Z,31.00
2017-12-21T00:14:22.204Z,27.50
2017-12-21T00:16:19.082Z,34.40
2017-12-21T00:17:18.163Z,31.30
2017-12-21T00:19:14.084Z,28.30
2017-12-21T00:20:14.099Z,25.70
2017-12-21T00:22:10.063Z,27.50
2017-12-21T00:23:10.045Z,24.70
2017-12-21T00:25:05.968Z,25.40
2017-12-21T00:26:05.970Z,26.50
2017-12-21T00:28:01.961Z,25.90
2017-12-21T00:29:02.440Z,26.60
2017-12-21T00:30:57.912Z,24.20
2017-12-21T00:31:57.816Z,25.50
2017-12-21T00:33:55.760Z,26.70
2017-12-21T00:34:56.285Z,25.20
2017-12-21T00:36:51.690Z,28.00
2017-12-21T00:37:51.712Z,24.70
2017-12-21T00:39:48.648Z,25.70
2017-12-21T00:40:47.664Z,24.00
2017-12-21T00:42:43.654Z,25.00
2017-12-21T00:43:43.640Z,25.00
2017-12-21T00:45:39.606Z,22.70
2017-12-21T00:46:39.577Z,23.10
2017-12-21T00:48:36.055Z,24.60
2017-12-21T00:49:35.526Z,25.90
2017-12-21T00:51:31.516Z,24.70
2017-12-21T00:52:31.437Z,25.50
2017-12-21T00:54:28.386Z,24.30
2017-12-21T00:55:27.407Z,23.90
2017-12-21T00:57:23.348Z,22.50
2017-12-21T00:58:23.347Z,23.10
2017-12-21T01:00:21.322Z,23.20
2017-12-21T01:01:19.321Z,20.50
2017-12-21T01:03:15.277Z,22.30
2017-12-21T01:04:15.242Z,23.50
2017-12-21T01:06:13.719Z,24.80
2017-12-21T01:07:13.177Z,21.90
2017-12-21T01:09:09.138Z,20.20
2017-12-21T01:10:09.119Z,23.80
2017-12-21T01:12:05.079Z,22.90
2017-12-21T01:13:05.054Z,21.40
2017-12-21T01:15:01.513Z,21.10
2017-12-21T01:16:00.975Z,24.30
2017-12-21T01:17:57.450Z,23.30
2017-12-21T01:18:56.921Z,26.10
2017-12-21T01:20:52.838Z,23.10
2017-12-21T01:21:52.813Z,22.50
2017-12-21T01:23:49.271Z,22.50
2017-12-21T01:24:48.762Z,24.80
2017-12-21T01:26:45.240Z,26.60
2017-12-21T01:27:44.682Z,25.70
2017-12-21T01:29:40.705Z,24.90
2017-12-21T01:30:41.568Z,24.80
2017-12-21T01:32:36.683Z,23.60
2017-12-21T01:33:36.673Z,25.80
2017-12-21T01:35:32.729Z,20.20
2017-12-21T01:36:33.607Z,19.10
2017-12-21T01:38:29.174Z,21.10
2017-12-21T01:39:28.695Z,22.50
2017-12-21T01:41:25.123Z,20.80
2017-12-21T01:42:24.747Z,21.00
2017-12-21T01:44:21.464Z,20.70
2017-12-21T01:45:20.521Z,21.00
2017-12-21T01:47:16.461Z,21.50
2017-12-21T01:48:16.450Z,20.80
2017-12-21T01:50:12.911Z,21.10
2017-12-21T01:51:12.442Z,21.30
2017-12-21T01:53:08.327Z,20.70
2017-12-21T01:54:08.314Z,24.40
2017-12-21T01:56:04.287Z,19.10
2017-12-21T01:57:04.262Z,19.20
2017-12-21T01:59:01.222Z,20.90
2017-12-21T02:00:00.226Z,19.20
2017-12-21T02:01:56.206Z,24.40
2017-12-21T02:02:56.195Z,21.90
2017-12-21T02:04:52.151Z,23.00
2017-12-21T02:05:52.644Z,21.50
2017-12-21T02:07:48.069Z,20.40
2017-12-21T02:08:49.611Z,22.50
2017-12-21T02:10:45.047Z,20.20
2017-12-21T02:11:43.981Z,19.70
2017-12-21T02:13:40.426Z,19.20
2017-12-21T02:14:39.912Z,19.10
2017-12-21T02:16:36.395Z,22.30
2017-12-21T02:17:35.863Z,20.10
2017-12-21T02:19:31.776Z,20.30
2017-12-21T02:20:31.791Z,20.50
2017-12-21T02:22:28.253Z,21.40
2017-12-21T02:23:27.745Z,23.20
2017-12-21T02:25:23.699Z,23.60
2017-12-21T02:26:24.198Z,22.80
2017-12-21T02:28:19.660Z,22.30
2017-12-21T02:29:19.613Z,22.20
2017-12-21T02:31:17.071Z,22.50
2017-12-21T02:32:16.060Z,22.30
2017-12-21T02:34:11.488Z,22.00
2017-12-21T02:35:11.470Z,22.60
2017-12-21T02:37:07.403Z,21.40
2017-12-21T02:38:07.426Z,20.70
2017-12-21T02:40:03.371Z,20.20
2017-12-21T02:41:03.344Z,21.40
2017-12-21T02:42:59.287Z,23.00
2017-12-21T02:43:59.298Z,23.60
2017-12-21T02:45:55.216Z,25.90
2017-12-21T02:46:56.768Z,26.00
2017-12-21T02:48:51.680Z,23.20
2017-12-21T02:49:51.161Z,23.60
2017-12-21T02:51:47.122Z,22.60
2017-12-21T02:52:47.087Z,21.90
2017-12-21T02:54:43.051Z,22.10
2017-12-21T02:55:43.042Z,25.20
2017-12-21T02:57:39.490Z,22.00
2017-12-21T02:58:38.970Z,23.60
2017-12-21T03:00:34.889Z,23.40
2017-12-21T03:01:35.448Z,23.40
2017-12-21T03:03:30.840Z,22.90
2017-12-21T03:04:30.815Z,22.90
2017-12-21T03:06:26.795Z,20.50
2017-12-21T03:07:27.277Z,23.90
2017-12-21T03:09:22.689Z,21.70
2017-12-21T03:10:22.691Z,19.90
2017-12-21T03:12:18.680Z,24.20
2017-12-21T03:13:18.654Z,20.50
2017-12-21T03:15:15.590Z,27.00
2017-12-21T03:16:14.580Z,25.40
2017-12-21T03:18:10.541Z,21.40
2017-12-21T03:19:10.498Z,22.70
2017-12-21T03:21:06.411Z,21.20
2017-12-21T03:22:06.414Z,24.10
2017-12-21T03:24:04.387Z,23.70
2017-12-21T03:25:04.377Z,23.40
2017-12-21T03:27:00.346Z,25.30
2017-12-21T03:28:00.281Z,22.70
2017-12-21T03:29:56.274Z,26.20
2017-12-21T03:30:56.239Z,24.20
2017-12-21T03:32:52.722Z,20.70
2017-12-21T03:33:52.252Z,21.00
2017-12-21T03:35:48.156Z,21.80
2017-12-21T03:36:48.153Z,23.20
2017-12-21T03:38:44.111Z,23.00
2017-12-21T03:39:44.087Z,26.60
2017-12-21T03:41:40.550Z,23.70
2017-12-21T03:42:41.030Z,19.40
2017-12-21T03:44:35.999Z,20.20
2017-12-21T03:45:35.986Z,19.30
2017-12-21T03:47:31.917Z,20.90
2017-12-21T03:48:31.923Z,20.70
2017-12-21T03:50:28.403Z,24.00
2017-12-21T03:51:27.882Z,25.40
2017-12-21T03:53:23.800Z,23.30
2017-12-21T03:54:23.812Z,19.90
2017-12-21T03:56:20.306Z,20.50
2017-12-21T03:57:20.266Z,16.20
2017-12-21T03:59:16.214Z,17.00
2017-12-21T04:00:15.703Z,19.90
2017-12-21T04:02:12.555Z,19.80
2017-12-21T04:03:11.628Z,18.40
2017-12-21T04:05:07.554Z,21.00
2017-12-21T04:06:07.551Z,20.60
2017-12-21T04:08:04.526Z,21.20
2017-12-21T04:09:03.504Z,21.40
2017-12-21T04:10:59.957Z,21.70
2017-12-21T04:11:59.447Z,19.80
2017-12-21T04:13:55.361Z,19.90
2017-12-21T04:14:55.366Z,22.10
2017-12-21T04:16:51.346Z,21.20
2017-12-21T04:17:51.329Z,17.60
2017-12-21T04:19:48.291Z,19.50
2017-12-21T04:20:48.782Z,23.60
2017-12-21T04:22:43.220Z,21.20
2017-12-21T04:23:43.222Z,18.40
2017-12-21T04:25:39.196Z,23.60
2017-12-21T04:26:39.137Z,22.60
2017-12-21T04:28:35.072Z,20.20
2017-12-21T04:29:35.074Z,24.00
2017-12-21T04:31:30.988Z,22.40
2017-12-21T04:32:31.532Z,20.10
2017-12-21T04:34:26.946Z,30.80
2017-12-21T04:35:26.939Z,26.70
2017-12-21T04:37:22.911Z,28.50
2017-12-21T04:38:22.892Z,26.00
2017-12-21T04:40:19.332Z,24.20
2017-12-21T04:41:18.800Z,26.10
2017-12-21T04:43:14.812Z,26.50
2017-12-21T04:44:14.765Z,25.60
2017-12-21T04:46:11.208Z,29.00
2017-12-21T04:47:10.686Z,25.60
2017-12-21T04:49:07.652Z,26.90
2017-12-21T04:50:07.135Z,31.60
2017-12-21T04:52:04.116Z,29.00
2017-12-21T04:53:02.562Z,30.80
2017-12-21T04:54:58.506Z,28.00
2017-12-21T04:55:58.497Z,29.30
2017-12-21T04:57:54.455Z,29.40
2017-12-21T04:58:54.466Z,30.70
2017-12-21T05:00:50.394Z,33.60
2017-12-21T05:01:50.389Z,36.60
2017-12-21T05:03:46.838Z,32.10
2017-12-21T05:04:46.315Z,29.30
2017-12-21T05:06:42.270Z,32.30
2017-12-21T05:07:42.772Z,32.70
2017-12-21T05:09:38.231Z,33.30
2017-12-21T05:10:38.729Z,35.60
2017-12-21T05:12:34.152Z,32.10
2017-12-21T05:13:34.148Z,38.40
2017-12-21T05:15:30.620Z,33.70
2017-12-21T05:16:30.071Z,37.00
2017-12-21T05:18:27.051Z,37.40
2017-12-21T05:19:26.027Z,34.10
2017-12-21T05:21:21.930Z,37.90
2017-12-21T05:22:21.935Z,36.60
2017-12-21T05:24:17.878Z,36.70
2017-12-21T05:25:17.874Z,41.10
2017-12-21T05:27:14.827Z,35.20
2017-12-21T05:28:13.801Z,33.80
2017-12-21T05:30:09.746Z,37.20
2017-12-21T05:31:09.740Z,34.80
2017-12-21T05:33:05.708Z,31.90
2017-12-21T05:34:05.692Z,34.20
2017-12-21T05:36:02.148Z,34.80
2017-12-21T05:37:01.614Z,33.70
2017-12-21T05:38:57.565Z,34.70
2017-12-21T05:39:57.565Z,32.00
2017-12-21T05:41:53.529Z,31.20
2017-12-21T05:42:53.492Z,34.90
2017-12-21T05:44:49.946Z,35.40
2017-12-21T05:45:49.441Z,37.20
2017-12-21T05:47:45.422Z,37.90
2017-12-21T05:48:45.384Z,36.90
2017-12-21T05:50:41.845Z,40.20
2017-12-21T05:51:41.841Z,40.50
2017-12-21T05:53:37.258Z,42.10
2017-12-21T05:54:37.219Z,43.90
2017-12-21T05:56:33.677Z,41.80
2017-12-21T05:57:33.160Z,42.70
2017-12-21T05:59:29.119Z,39.40
2017-12-21T06:00:29.107Z,42.90
2017-12-21T06:02:25.074Z,40.50
2017-12-21T06:03:25.055Z,37.00
2017-12-21T06:05:21.054Z,39.10
2017-12-21T06:06:21.044Z,41.50
2017-12-21T06:08:16.980Z,36.40
2017-12-21T06:09:16.972Z,43.60
2017-12-21T06:11:12.941Z,43.70
2017-12-21T06:12:12.886Z,40.80
2017-12-21T06:14:09.320Z,41.90
2017-12-21T06:15:08.813Z,41.20
2017-12-21T06:17:04.848Z,39.60
2017-12-21T06:18:04.768Z,40.80
2017-12-21T06:20:01.220Z,37.30
2017-12-21T06:21:00.699Z,39.10
2017-12-21T06:22:56.668Z,42.20
2017-12-21T06:23:57.152Z,44.10
2017-12-21T06:25:51.131Z,36.90
2017-12-21T06:26:51.066Z,40.60
2017-12-21T06:28:47.036Z,38.90
2017-12-21T06:29:47.011Z,39.70
2017-12-21T06:31:44.967Z,37.00
2017-12-21T06:32:42.964Z,36.70
2017-12-21T06:34:38.882Z,42.10
2017-12-21T06:35:39.398Z,41.30
2017-12-21T06:37:34.857Z,35.60
2017-12-21T06:38:34.849Z,35.50
2017-12-21T06:40:31.297Z,40.00
2017-12-21T06:41:30.735Z,38.70
2017-12-21T06:43:27.689Z,44.00
2017-12-21T06:44:26.686Z,44.80
2017-12-21T06:46:22.652Z,44.70
2017-12-21T06:47:22.655Z,43.50
2017-12-21T06:49:18.601Z,41.80
2017-12-21T06:50:18.611Z,39.80
2017-12-21T06:52:14.535Z,40.10
2017-12-21T06:53:14.535Z,39.90
2017-12-21T06:55:10.999Z,50.00
2017-12-21T06:56:10.484Z,41.80
2017-12-21T06:58:06.413Z,42.50
2017-12-21T06:59:06.430Z,47.10
2017-12-21T07:01:02.875Z,44.60
2017-12-21T07:02:02.872Z,47.30
2017-12-21T07:03:58.286Z,45.70
2017-12-21T07:04:58.262Z,45.20
2017-12-21T07:06:54.200Z,47.70
2017-12-21T07:07:54.196Z,49.70
2017-12-21T07:10:16.184Z,43.60
2017-12-21T07:10:50.135Z,46.80
2017-12-21T07:12:46.611Z,43.40
2017-12-21T07:13:46.121Z,46.80
2017-12-21T07:15:42.093Z,53.80
2017-12-21T07:16:42.061Z,45.30
2017-12-21T07:18:39.023Z,49.60
2017-12-21T07:19:38.022Z,51.70
2017-12-21T07:21:34.961Z,57.50
2017-12-21T07:22:35.473Z,46.70
2017-12-21T07:24:30.926Z,49.90
2017-12-21T07:25:31.415Z,49.10
2017-12-21T07:27:27.369Z,50.20
2017-12-21T07:28:27.340Z,47.50
2017-12-21T07:30:22.824Z,50.80
2017-12-21T07:31:22.807Z,46.20
2017-12-21T07:33:19.246Z,51.90
2017-12-21T07:34:18.758Z,67.20
2017-12-21T07:36:14.712Z,59.20
2017-12-21T07:37:14.698Z,55.40
2017-12-21T07:39:11.137Z,54.20
2017-12-21T07:40:10.652Z,54.80
2017-12-21T07:42:07.576Z,58.40
2017-12-21T07:43:07.086Z,61.50
2017-12-21T07:45:03.033Z,55.50
2017-12-21T07:46:02.502Z,58.10
2017-12-21T07:47:58.980Z,56.60
2017-12-21T07:48:58.462Z,60.50
2017-12-21T07:50:54.901Z,48.20
2017-12-21T07:51:54.373Z,53.30
2017-12-21T07:53:50.828Z,69.30
2017-12-21T07:54:50.307Z,56.40
2017-12-21T07:56:46.278Z,57.00
2017-12-21T07:57:46.271Z,64.80
2017-12-21T07:59:42.258Z,57.90
2017-12-21T08:00:42.262Z,52.50
2017-12-21T08:02:38.708Z,60.50
2017-12-21T08:03:38.210Z,66.90
2017-12-21T08:05:34.169Z,66.40
2017-12-21T08:06:34.138Z,58.20
2017-12-21T08:08:31.087Z,58.70
2017-12-21T08:09:30.079Z,64.40
2017-12-21T08:11:27.534Z,59.20
2017-12-21T08:12:26.010Z,56.10
2017-12-21T08:14:21.939Z,60.40
2017-12-21T08:15:21.938Z,61.50
2017-12-21T08:17:17.898Z,64.90
2017-12-21T08:18:17.890Z,65.70
2017-12-21T08:20:13.870Z,60.20
2017-12-21T08:21:13.819Z,59.10
2017-12-21T08:23:09.758Z,63.40
2017-12-21T08:24:09.775Z,64.10
2017-12-21T08:26:05.689Z,56.00
2017-12-21T08:27:05.692Z,57.90
2017-12-21T08:29:01.647Z,62.60
2017-12-21T08:30:02.162Z,58.60
2017-12-21T08:31:57.557Z,69.50
2017-12-21T08:32:57.575Z,71.40
2017-12-21T08:34:55.025Z,61.50
2017-12-21T08:35:54.027Z,58.20
2017-12-21T08:37:49.430Z,67.90
2017-12-21T08:38:49.977Z,60.40
2017-12-21T08:40:45.350Z,59.80
2017-12-21T08:41:45.907Z,58.10
2017-12-21T08:43:42.302Z,58.80
2017-12-21T08:44:41.356Z,59.50
2017-12-21T08:46:38.746Z,64.60
2017-12-21T08:47:37.221Z,62.50
2017-12-21T08:49:33.171Z,71.40
2017-12-21T08:50:33.149Z,62.10
2017-12-21T08:52:29.082Z,53.40
2017-12-21T08:53:29.097Z,60.30
2017-12-21T08:55:25.488Z,54.70
2017-12-21T08:56:25.505Z,60.50
2017-12-21T08:58:21.454Z,51.80
2017-12-21T08:59:22.436Z,53.40
2017-12-21T09:01:17.414Z,59.00
2017-12-21T09:02:17.948Z,60.90
2017-12-21T09:04:13.295Z,67.70
2017-12-21T09:05:13.826Z,59.40
2017-12-21T09:07:09.240Z,53.30
2017-12-21T09:08:09.762Z,53.90
2017-12-21T09:10:05.170Z,56.70
2017-12-21T09:11:05.171Z,52.70
2017-12-21T09:13:01.130Z,54.90
2017-12-21T09:14:01.155Z,56.60
2017-12-21T09:15:57.047Z,52.60
2017-12-21T09:16:57.059Z,53.00
2017-12-21T09:18:53.513Z,54.20
2017-12-21T09:19:53.004Z,50.30
2017-12-21T09:21:48.941Z,48.90
2017-12-21T09:22:48.935Z,54.50
2017-12-21T09:24:44.921Z,49.40
2017-12-21T09:25:44.917Z,43.90
2017-12-21T09:27:42.353Z,54.00
2017-12-21T09:28:41.352Z,43.80
2017-12-21T09:30:36.785Z,41.60
2017-12-21T09:31:36.754Z,39.90
2017-12-21T09:33:33.212Z,36.70
2017-12-21T09:34:32.685Z,38.40
2017-12-21T09:36:28.617Z,32.50
2017-12-21T09:37:28.630Z,34.40
2017-12-21T09:39:24.579Z,32.10
2017-12-21T09:40:24.575Z,34.10
2017-12-21T09:42:20.511Z,25.20
2017-12-21T09:43:20.506Z,27.00
2017-12-21T09:45:16.963Z,28.20
2017-12-21T09:46:16.456Z,30.90
2017-12-21T09:48:12.893Z,24.70
2017-12-21T09:49:12.381Z,25.70
2017-12-21T09:51:08.312Z,24.90
2017-12-21T09:52:08.288Z,23.40
2017-12-21T09:54:04.258Z,25.70
2017-12-21T09:55:04.264Z,26.40
2017-12-21T09:57:00.773Z,21.70
2017-12-21T09:58:00.187Z,22.00
2017-12-21T09:59:56.650Z,21.90
2017-12-21T10:02:15.602Z,27.80
2017-12-21T10:03:15.044Z,22.80
2017-12-21T10:05:10.990Z,22.80
2017-12-21T10:06:10.999Z,22.00
2017-12-21T10:08:07.977Z,21.40
2017-12-21T10:09:07.455Z,18.60
2017-12-21T10:11:02.897Z,20.50
2017-12-21T10:12:02.848Z,18.70
2017-12-21T10:13:58.800Z,20.70
2017-12-21T10:15:00.471Z,20.00
2017-12-21T10:16:56.499Z,20.40
2017-12-21T10:19:54.656Z,18.20
2017-12-21T10:20:51.525Z,17.90
2017-12-21T10:23:04.490Z,17.30
2017-12-21T10:25:48.645Z,19.80
2017-12-21T10:26:49.074Z,18.80
2017-12-21T10:28:42.553Z,20.90
2017-12-21T10:29:42.562Z,18.50
2017-12-21T10:31:56.040Z,15.50
2017-12-21T10:32:55.354Z,18.30
2017-12-21T10:34:52.801Z,19.80
2017-12-21T10:35:50.946Z,17.90
2017-12-21T10:37:47.006Z,18.30
2017-12-21T10:38:46.979Z,16.20
2017-12-21T10:40:42.879Z,18.60
2017-12-21T10:41:42.895Z,20.40
2017-12-21T10:43:39.883Z,17.20
2017-12-21T10:44:38.877Z,18.10
2017-12-21T10:46:34.839Z,17.80
2017-12-21T10:47:35.807Z,14.80
2017-12-21T10:49:32.253Z,15.40
2017-12-21T10:50:30.764Z,17.80
2017-12-21T10:52:26.741Z,17.20
2017-12-21T10:55:23.171Z,14.80
2017-12-21T10:56:22.653Z,16.60
2017-12-21T10:58:18.613Z,16.30
2017-12-21T10:59:19.108Z,17.60
2017-12-21T11:01:15.544Z,16.60
2017-12-21T11:02:15.051Z,18.00
2017-12-21T11:04:10.938Z,15.70
2017-12-21T11:05:10.432Z,16.00
2017-12-21T11:07:08.396Z,14.60
2017-12-21T11:08:08.364Z,16.00
2017-12-21T11:10:04.409Z,19.20
2017-12-21T11:11:05.321Z,16.90
2017-12-21T11:13:00.307Z,17.20
2017-12-21T11:14:00.798Z,16.40
2017-12-21T11:15:57.230Z,24.30
2017-12-21T11:16:56.728Z,23.90
2017-12-21T11:18:52.195Z,16.10
2017-12-21T11:19:52.179Z,17.90
2017-12-21T11:21:48.173Z,16.40
2017-12-21T11:22:48.159Z,16.30
2017-12-21T11:24:44.135Z,19.10
2017-12-21T11:25:44.101Z,16.80
2017-12-21T11:27:40.029Z,21.00
2017-12-21T11:28:40.036Z,17.30
2017-12-21T11:30:38.476Z,15.10
2017-12-21T11:31:37.926Z,17.40
2017-12-21T11:33:36.408Z,17.20
2017-12-21T11:34:35.989Z,16.00
2017-12-21T11:36:31.983Z,17.30
2017-12-21T11:37:33.450Z,16.70
2017-12-21T11:39:29.298Z,18.10
2017-12-21T11:40:27.910Z,17.40
2017-12-21T11:42:23.800Z,20.50
2017-12-21T11:43:24.303Z,28.80
2017-12-21T11:45:20.273Z,27.00
2017-12-21T11:46:19.777Z,18.70
2017-12-21T11:48:17.221Z,19.90
2017-12-21T11:49:16.230Z,21.00
2017-12-21T11:51:12.681Z,17.40
2017-12-21T11:52:11.702Z,19.80
2017-12-21T11:54:07.664Z,21.70
2017-12-21T11:55:08.159Z,24.20
2017-12-21T11:57:04.571Z,20.60
2017-12-21T11:58:04.575Z,21.90
2017-12-21T12:00:00.551Z,20.80
2017-12-21T12:01:01.449Z,18.50
2017-12-21T12:02:56.969Z,20.40
2017-12-21T12:03:56.968Z,20.10
2017-12-21T12:05:52.374Z,24.50
2017-12-21T12:06:52.373Z,22.40
2017-12-21T12:08:48.315Z,24.80
2017-12-21T12:09:48.331Z,22.30
2017-12-21T12:11:46.256Z,22.40
2017-12-21T12:12:46.786Z,21.20
2017-12-21T12:14:42.264Z,23.00
2017-12-21T12:15:43.220Z,22.00
2017-12-21T12:17:38.205Z,19.70
2017-12-21T12:18:38.185Z,22.80
2017-12-21T12:20:34.160Z,22.10
2017-12-21T12:21:34.129Z,23.20
2017-12-21T12:23:32.046Z,18.60
2017-12-21T12:24:32.579Z,19.60
2017-12-21T12:26:30.513Z,23.70
2017-12-21T12:27:30.001Z,19.30
2017-12-21T12:29:26.943Z,21.20
2017-12-21T12:30:26.462Z,21.20
2017-12-21T12:32:22.401Z,22.50
2017-12-21T12:33:22.429Z,20.60
2017-12-21T12:35:18.832Z,20.00
2017-12-21T12:36:17.825Z,21.10
2017-12-21T12:38:14.265Z,23.80
2017-12-21T12:39:13.758Z,20.90
2017-12-21T12:41:14.207Z,23.40
2017-12-21T12:42:12.705Z,20.00
2017-12-21T12:44:07.782Z,20.30
2017-12-21T12:45:09.260Z,19.20
2017-12-21T12:47:03.781Z,19.50
2017-12-21T12:48:03.780Z,21.70
2017-12-21T12:49:59.745Z,23.20
2017-12-21T12:50:59.736Z,20.80
2017-12-21T12:52:55.679Z,19.10
2017-12-21T12:53:55.681Z,21.50
2017-12-21T12:55:51.641Z,19.50
2017-12-21T12:56:51.631Z,18.00
2017-12-21T12:58:48.086Z,15.50
2017-12-21T12:59:47.559Z,18.70
2017-12-21T13:01:44.521Z,20.50
2017-12-21T13:02:43.517Z,22.10
2017-12-21T13:04:38.496Z,22.80
2017-12-21T13:05:38.227Z,25.20
2017-12-21T13:07:34.165Z,19.50
2017-12-21T13:08:34.161Z,20.80
2017-12-21T13:10:32.633Z,19.40
2017-12-21T13:11:33.846Z,23.40
2017-12-21T13:13:31.042Z,19.30
2017-12-21T13:14:31.548Z,23.90
2017-12-21T13:17:42.683Z,22.80
2017-12-21T13:18:41.771Z,21.60
2017-12-21T13:20:41.259Z,21.40
2017-12-21T13:21:41.280Z,23.50
2017-12-21T13:23:39.774Z,23.40
2017-12-21T13:24:39.240Z,24.80
2017-12-21T13:26:38.871Z,25.20
2017-12-21T13:27:38.859Z,23.80
2017-12-21T13:29:45.675Z,24.30
2017-12-21T13:32:05.622Z,22.50
2017-12-21T13:33:06.295Z,21.80
2017-12-21T13:35:03.601Z,21.20
2017-12-21T13:36:03.562Z,20.40
2017-12-21T13:38:00.011Z,20.80
2017-12-21T13:39:00.524Z,24.40
2017-12-21T13:40:56.473Z,21.50
2017-12-21T13:41:55.422Z,24.20
2017-12-21T13:43:54.370Z,25.00
2017-12-21T13:44:53.392Z,24.10
2017-12-21T13:46:49.285Z,21.60
2017-12-21T13:47:49.287Z,22.10
2017-12-21T13:49:45.232Z,24.00
2017-12-21T13:50:45.225Z,25.00
2017-12-21T13:52:42.191Z,26.90
2017-12-21T13:53:41.166Z,26.90
2017-12-21T13:55:37.141Z,24.30
2017-12-21T13:56:37.103Z,24.50
2017-12-21T13:58:35.555Z,22.80
2017-12-21T13:59:35.055Z,27.60
2017-12-21T14:01:31.522Z,23.60
2017-12-21T14:02:31.002Z,25.10
2017-12-21T14:04:27.483Z,25.40
2017-12-21T14:05:27.951Z,25.90
2017-12-21T14:07:29.072Z,24.10
2017-12-21T14:08:27.589Z,23.80
2017-12-21T14:10:27.557Z,23.80
2017-12-21T14:11:26.531Z,21.40
2017-12-21T14:13:23.107Z,27.40
2017-12-21T14:14:22.619Z,26.40
2017-12-21T14:16:18.513Z,23.30
2017-12-21T14:17:17.587Z,23.70
2017-12-21T14:19:13.562Z,22.40
2017-12-21T14:20:14.052Z,24.50
2017-12-21T14:22:09.982Z,25.10
2017-12-21T14:23:09.502Z,22.40
2017-12-21T14:25:05.476Z,20.50
2017-12-21T14:26:06.872Z,23.30
2017-12-21T14:28:01.413Z,21.20
2017-12-21T14:29:01.895Z,21.70
2017-12-21T14:30:58.250Z,19.40
2017-12-21T14:31:57.284Z,20.40
2017-12-21T14:33:53.224Z,19.50
2017-12-21T14:34:53.215Z,24.30
2017-12-21T14:36:49.165Z,19.80
2017-12-21T14:37:49.152Z,17.90
2017-12-21T14:39:45.096Z,18.60
2017-12-21T14:40:45.089Z,19.60
2017-12-21T14:42:41.560Z,23.90
2017-12-21T14:43:41.046Z,22.30
2017-12-21T14:45:39.994Z,21.20
2017-12-21T14:46:39.111Z,20.60
2017-12-21T14:48:35.570Z,19.50
2017-12-21T14:49:35.043Z,19.40
2017-12-21T14:51:31.018Z,22.40
2017-12-21T14:52:32.521Z,26.40
2017-12-21T14:54:26.932Z,23.30
2017-12-21T14:55:27.441Z,21.30
2017-12-21T14:57:22.891Z,23.60
2017-12-21T14:58:22.892Z,26.70
2017-12-21T15:00:20.863Z,27.40
2017-12-21T15:01:20.841Z,35.40
2017-12-21T15:03:18.948Z,31.20
2017-12-21T15:04:19.797Z,28.10
2017-12-21T15:06:14.942Z,25.80
2017-12-21T15:07:14.856Z,23.40
2017-12-21T15:09:12.828Z,26.90
2017-12-21T15:10:12.798Z,28.90
2017-12-21T15:12:09.252Z,26.90
2017-12-21T15:13:08.729Z,26.10
2017-12-21T15:15:05.620Z,26.80
2017-12-21T15:16:04.678Z,26.80
2017-12-21T15:18:01.158Z,28.50
2017-12-21T15:19:00.617Z,26.50
2017-12-21T15:20:56.560Z,30.40
2017-12-21T15:21:56.537Z,27.20
2017-12-21T15:23:52.534Z,29.50
2017-12-21T15:24:53.516Z,26.40
2017-12-21T15:26:51.470Z,30.00
2017-12-21T15:27:50.502Z,28.80
2017-12-21T15:29:46.960Z,33.30
2017-12-21T15:30:46.432Z,32.00
2017-12-21T15:32:42.902Z,32.70
2017-12-21T15:33:42.440Z,30.40
2017-12-21T15:35:39.381Z,29.00
2017-12-21T15:36:38.401Z,27.10
2017-12-21T15:38:34.871Z,28.70
2017-12-21T15:39:34.360Z,28.50
2017-12-21T15:41:31.797Z,26.30
2017-12-21T15:42:30.876Z,27.50
2017-12-21T15:44:27.735Z,24.50
2017-12-21T15:45:26.210Z,27.40
2017-12-21T15:47:23.174Z,23.50
2017-12-21T15:48:22.171Z,26.00
2017-12-21T15:50:18.121Z,24.10
2017-12-21T15:51:18.108Z,25.60
2017-12-21T15:53:14.025Z,26.90
2017-12-21T15:54:14.033Z,28.50
2017-12-21T15:56:10.490Z,29.50
2017-12-21T15:57:09.978Z,25.30
2017-12-21T15:59:06.925Z,27.50
2017-12-21T16:00:05.950Z,24.60
2017-12-21T16:02:01.909Z,24.90
2017-12-21T16:03:01.898Z,24.00
2017-12-21T16:04:58.337Z,27.40
2017-12-21T16:05:57.843Z,27.50
2017-12-21T16:07:56.308Z,28.30
2017-12-21T16:08:55.899Z,27.70
2017-12-21T16:10:53.826Z,28.30
2017-12-21T16:11:53.796Z,28.50
2017-12-21T16:13:52.746Z,27.50
2017-12-21T16:14:51.863Z,27.40
2017-12-21T16:16:47.804Z,31.80
2017-12-21T16:17:47.818Z,29.20
2017-12-21T16:19:45.271Z,32.80
2017-12-21T16:20:43.771Z,30.70
2017-12-21T16:22:40.701Z,32.10
2017-12-21T16:23:40.199Z,33.50
2017-12-21T16:25:38.143Z,33.30
2017-12-21T16:26:40.219Z,31.80
2017-12-21T16:31:16.259Z,30.80
2017-12-21T16:32:16.292Z,32.20
2017-12-21T16:34:12.552Z,34.40
2017-12-21T16:36:27.535Z,34.90
2017-12-21T16:37:27.517Z,37.40
2017-12-21T16:39:23.966Z,37.90
2017-12-21T16:40:23.473Z,35.40
2017-12-21T16:42:21.412Z,33.50
2017-12-21T16:43:19.415Z,34.10
2017-12-21T16:45:18.382Z,39.20
2017-12-21T16:46:18.484Z,37.30
2017-12-21T16:48:15.410Z,39.60
2017-12-21T16:49:15.905Z,40.00
2017-12-21T16:51:13.368Z,43.80
2017-12-21T16:52:13.351Z,38.80
2017-12-21T16:54:11.337Z,39.70
2017-12-21T16:55:11.824Z,42.50
2017-12-21T16:57:09.766Z,36.60
2017-12-21T16:58:09.409Z,35.50
2017-12-21T17:00:08.349Z,33.20
2017-12-21T17:01:07.323Z,35.50
2017-12-21T17:03:05.273Z,38.20
2017-12-21T17:04:05.256Z,39.00
2017-12-21T17:06:03.232Z,38.50
2017-12-21T17:07:03.725Z,45.30
2017-12-21T17:09:00.151Z,36.30
2017-12-21T17:09:59.672Z,39.00
2017-12-21T17:11:57.629Z,35.60
2017-12-21T17:12:57.617Z,37.60
2017-12-21T17:14:54.044Z,35.80
2017-12-21T17:15:53.547Z,34.20
2017-12-21T17:17:49.478Z,37.10
2017-12-21T17:18:48.977Z,37.40
2017-12-21T17:20:46.914Z,38.00
2017-12-21T17:21:46.908Z,34.90
2017-12-21T17:23:44.844Z,36.80
2017-12-21T17:24:44.844Z,34.10
2017-12-21T17:26:42.802Z,38.20
2017-12-21T17:27:42.796Z,35.40
2017-12-21T17:29:41.755Z,38.20
2017-12-21T17:30:40.748Z,40.80
2017-12-21T17:32:40.680Z,39.10
2017-12-21T17:33:38.671Z,42.40
2017-12-21T17:35:37.130Z,40.40
2017-12-21T17:36:36.608Z,38.70
2017-12-21T17:38:34.593Z,35.00
2017-12-21T17:39:35.555Z,38.20
2017-12-21T17:41:32.530Z,40.90
2017-12-21T17:42:32.515Z,39.80
2017-12-21T17:44:31.463Z,40.80
2017-12-21T17:45:30.456Z,41.30
2017-12-21T17:47:28.451Z,37.20
2017-12-21T17:48:28.403Z,41.30
2017-12-21T17:50:26.374Z,43.90
2017-12-21T17:51:26.360Z,39.70
2017-12-21T17:53:24.354Z,36.20
2017-12-21T17:54:24.323Z,38.10
2017-12-21T17:56:22.264Z,41.00
2017-12-21T17:57:22.250Z,38.60
2017-12-21T17:59:22.650Z,36.80
2017-12-21T18:00:21.199Z,38.50
2017-12-21T18:02:18.242Z,41.80
2017-12-21T18:03:18.748Z,38.40
2017-12-21T18:05:16.237Z,39.10
2017-12-21T18:06:16.198Z,37.10
2017-12-21T18:08:14.139Z,46.20
2017-12-21T18:09:14.106Z,42.00
2017-12-21T18:11:12.609Z,40.20
2017-12-21T18:12:12.066Z,38.70
2017-12-21T18:14:10.024Z,41.30
2017-12-21T18:15:09.992Z,40.20
2017-12-21T18:17:07.928Z,38.10
2017-12-21T18:18:07.949Z,38.80
2017-12-21T18:20:07.904Z,36.10
2017-12-21T18:21:06.890Z,34.90
2017-12-21T18:23:04.844Z,38.90
2017-12-21T18:24:03.990Z,38.80
2017-12-21T18:26:02.007Z,41.10
2017-12-21T18:27:01.997Z,39.60
2017-12-21T18:29:00.953Z,40.80
2017-12-21T18:29:59.935Z,39.20
2017-12-21T18:31:58.382Z,41.30
2017-12-21T18:32:57.863Z,40.80
2017-12-21T18:34:55.872Z,41.00
2017-12-21T18:35:56.324Z,38.20
2017-12-21T18:37:54.755Z,43.90
2017-12-21T18:38:54.756Z,45.50
2017-12-21T18:40:50.335Z,47.00
2017-12-21T18:41:49.784Z,46.50
2017-12-21T18:43:47.713Z,44.90
2017-12-21T18:44:47.697Z,48.50
2017-12-21T18:46:46.663Z,47.70
2017-12-21T18:47:45.688Z,49.80
2017-12-21T18:49:44.157Z,47.10
2017-12-21T18:50:43.614Z,45.80
2017-12-21T18:52:41.580Z,50.50
2017-12-21T18:53:42.064Z,44.60
2017-12-21T18:55:39.505Z,49.70
2017-12-21T18:56:40.022Z,48.00
2017-12-21T18:58:37.986Z,48.40
2017-12-21T18:59:37.480Z,46.20
2017-12-21T19:01:36.422Z,50.40
2017-12-21T19:02:35.526Z,50.20
2017-12-21T19:04:34.984Z,48.40
2017-12-21T19:05:34.473Z,49.10
2017-12-21T19:07:31.544Z,47.00